Time;durP1;ratioP1;P1;durP2;ratioP2;P2;SDS_P1;SDS_P2;PMS_P1;PMS_P2;Temp;Humidity;BMP_temperature;BMP_pressure;BME280_temperature;BME280_humidity;BME280_pressure;Samples;Min_cycle;Max_cycle;Signal;HPM_P1;HPM_P2
2022/03/25 00:00:00;;;;;;;47.2;39.2;;;;;;;10.8;100.0;102660;;;;
2022/03/25 00:01:00;;;;;;;47.2;39.2;;;;;;;10.7;100.0;102670;;;;
2022/03/25 00:02:00;;;;;;;47.2;39.2;;;;;;;10.7;100.0;102670;;;;
2022/03/25 00:03:00;;;;;;;47.2;39.2;;;;;;;10.8;100.0;102670;;;;
2022/03/25 00:04:00;;;;;;;47.2;39.2;;;;;;;10.8;100.0;102670;;;;
2022/03/25 00:05:00;;;;;;;47.2;39.2;;;;;;;10.8;100.0;102670;;;;
2022/03/25 00:06:00;;;;;;;47.2;39.2;;;;;;;10.8;100.0;102670;;;;
2022/03/25 00:07:00;;;;;;;47.2;39.2;;;;;;;10.7;100.0;102680;;;;
2022/03/25 00:08:01;;;;;;;47.2;39.2;;;;;;;10.7;100.0;102680;;;;
2022/03/25 00:09:00;;;;;;;47.2;39.2;;;;;;;10.7;100.0;102680;;;;
2022/03/25 00:10:00;;;;;;;47.2;39.2;;;;;;;10.7;100.0;102680;;;;
2022/03/25 00:11:00;;;;;;;47.2;39.2;;;;;;;10.7;100.0;102670;;;;
2022/03/25 00:12:00;;;;;;;47.2;39.2;;;;;;;10.7;100.0;102670;;;;
2022/03/25 00:13:00;;;;;;;47.2;39.2;;;;;;;10.6;100.0;102680;;;;
2022/03/25 00:14:00;;;;;;;47.2;39.2;;;;;;;10.6;100.0;102680;;;;
2022/03/25 00:15:00;;;;;;;47.2;39.2;;;;;;;10.5;100.0;102680;;;;
2022/03/25 00:16:00;;;;;;;47.2;39.2;;;;;;;10.5;100.0;102680;;;;
2022/03/25 00:17:00;;;;;;;49.1;40.1;;;;;;;10.6;100.0;102670;;;;
2022/03/25 00:18:00;;;;;;;49.1;40.1;;;;;;;10.6;100.0;102670;;;;
2022/03/25 00:19:00;;;;;;;49.1;40.1;;;;;;;10.6;100.0;102680;;;;
2022/03/25 00:20:00;;;;;;;49.1;40.1;;;;;;;10.6;100.0;102680;;;;
2022/03/25 00:21:00;;;;;;;49.1;40.1;;;;;;;10.5;100.0;102680;;;;
2022/03/25 00:22:00;;;;;;;49.1;40.1;;;;;;;10.5;100.0;102680;;;;
2022/03/25 00:23:00;;;;;;;49.1;40.1;;;;;;;10.5;100.0;102680;;;;
2022/03/25 00:24:00;;;;;;;49.1;40.1;;;;;;;10.5;100.0;102680;;;;
2022/03/25 00:25:00;;;;;;;49.1;40.1;;;;;;;10.5;100.0;102680;;;;
2022/03/25 00:26:01;;;;;;;49.1;40.1;;;;;;;10.5;100.0;102680;;;;
2022/03/25 00:27:00;;;;;;;49.1;40.1;;;;;;;10.4;100.0;102680;;;;
2022/03/25 00:28:00;;;;;;;49.1;40.1;;;;;;;10.4;100.0;102680;;;;
2022/03/25 00:29:00;;;;;;;49.1;40.1;;;;;;;10.3;100.0;102680;;;;
2022/03/25 00:30:00;;;;;;;49.1;40.1;;;;;;;10.3;100.0;102680;;;;
2022/03/25 00:31:01;;;;;;;49.1;40.1;;;;;;;10.3;100.0;102680;;;;
2022/03/25 00:32:00;;;;;;;49.1;40.1;;;;;;;10.3;100.0;102680;;;;
2022/03/25 00:33:00;;;;;;;49.1;40.1;;;;;;;10.3;100.0;102680;;;;
2022/03/25 00:34:00;;;;;;;49.1;40.1;;;;;;;10.3;100.0;102680;;;;
2022/03/25 00:35:00;;;;;;;49.1;40.1;;;;;;;10.3;100.0;102680;;;;
2022/03/25 00:36:01;;;;;;;49.1;40.1;;;;;;;10.3;100.0;102680;;;;
2022/03/25 00:37:00;;;;;;;51.6;39.2;;;;;;;10.4;100.0;102680;;;;
2022/03/25 00:38:00;;;;;;;51.6;39.2;;;;;;;10.4;100.0;102680;;;;
2022/03/25 00:39:02;;;;;;;51.6;39.2;;;;;;;10.2;100.0;102680;;;;
2022/03/25 00:40:00;;;;;;;51.6;39.2;;;;;;;10.2;100.0;102680;;;;
2022/03/25 00:41:00;;;;;;;51.6;39.2;;;;;;;10.2;100.0;102680;;;;
2022/03/25 00:42:00;;;;;;;51.6;39.2;;;;;;;10.2;100.0;102680;;;;
2022/03/25 00:43:00;;;;;;;51.6;39.2;;;;;;;10.1;100.0;102680;;;;
2022/03/25 00:44:00;;;;;;;51.6;39.2;;;;;;;10.1;100.0;102680;;;;
2022/03/25 00:45:03;;;;;;;51.6;39.2;;;;;;;10.1;100.0;102680;;;;
2022/03/25 00:46:00;;;;;;;51.6;39.2;;;;;;;10.1;100.0;102680;;;;
2022/03/25 00:47:00;;;;;;;51.6;39.2;;;;;;;10.1;100.0;102680;;;;
2022/03/25 00:48:00;;;;;;;51.6;39.2;;;;;;;10.1;100.0;102680;;;;
2022/03/25 00:49:00;;;;;;;51.6;39.2;;;;;;;10.1;100.0;102680;;;;
2022/03/25 00:50:00;;;;;;;51.6;39.2;;;;;;;10.1;100.0;102680;;;;
2022/03/25 00:51:00;;;;;;;51.6;39.2;;;;;;;10.1;100.0;102680;;;;
2022/03/25 00:52:00;;;;;;;51.6;39.2;;;;;;;10.1;100.0;102680;;;;
2022/03/25 00:53:00;;;;;;;51.6;39.2;;;;;;;10.1;100.0;102680;;;;
2022/03/25 00:54:00;;;;;;;51.6;39.2;;;;;;;10.1;100.0;102680;;;;
2022/03/25 00:55:00;;;;;;;51.6;39.2;;;;;;;10.0;100.0;102680;;;;
2022/03/25 00:56:01;;;;;;;51.6;39.2;;;;;;;10.0;100.0;102680;;;;
2022/03/25 00:57:02;;;;;;;48.2;36.9;;;;;;;10.1;100.0;102680;;;;
2022/03/25 00:58:00;;;;;;;48.2;36.9;;;;;;;10.1;100.0;102680;;;;
2022/03/25 00:59:00;;;;;;;48.2;36.9;;;;;;;10.0;100.0;102680;;;;
2022/03/25 01:00:00;;;;;;;48.2;36.9;;;;;;;10.0;100.0;102680;;;;
2022/03/25 01:01:00;;;;;;;48.2;36.9;;;;;;;9.9;100.0;102680;;;;
2022/03/25 01:02:00;;;;;;;48.2;36.9;;;;;;;9.9;100.0;102680;;;;
2022/03/25 01:03:00;;;;;;;48.2;36.9;;;;;;;9.8;100.0;102680;;;;
2022/03/25 01:04:00;;;;;;;48.2;36.9;;;;;;;9.8;100.0;102680;;;;
2022/03/25 01:05:00;;;;;;;48.2;36.9;;;;;;;9.9;100.0;102680;;;;
2022/03/25 01:06:00;;;;;;;48.2;36.9;;;;;;;9.9;100.0;102680;;;;
2022/03/25 01:07:00;;;;;;;48.2;36.9;;;;;;;9.8;100.0;102680;;;;
2022/03/25 01:08:00;;;;;;;48.2;36.9;;;;;;;9.8;100.0;102680;;;;
2022/03/25 01:09:01;;;;;;;48.2;36.9;;;;;;;9.8;100.0;102680;;;;
2022/03/25 01:10:00;;;;;;;48.2;36.9;;;;;;;9.8;100.0;102680;;;;
2022/03/25 01:11:00;;;;;;;48.2;36.9;;;;;;;9.7;100.0;102680;;;;
2022/03/25 01:12:00;;;;;;;48.2;36.9;;;;;;;9.7;100.0;102680;;;;
2022/03/25 01:13:00;;;;;;;48.2;36.9;;;;;;;9.6;100.0;102680;;;;
2022/03/25 01:14:00;;;;;;;48.2;36.9;;;;;;;9.6;100.0;102680;;;;
2022/03/25 01:15:00;;;;;;;48.2;36.9;;;;;;;9.6;100.0;102680;;;;
2022/03/25 01:16:01;;;;;;;48.2;36.9;;;;;;;9.6;100.0;102680;;;;
2022/03/25 01:17:00;;;;;;;43.3;35.1;;;;;;;9.7;100.0;102680;;;;
2022/03/25 01:18:00;;;;;;;43.3;35.1;;;;;;;9.7;100.0;102680;;;;
2022/03/25 01:19:00;;;;;;;43.3;35.1;;;;;;;9.6;100.0;102680;;;;
2022/03/25 01:20:00;;;;;;;43.3;35.1;;;;;;;9.6;100.0;102680;;;;
2022/03/25 01:21:00;;;;;;;43.3;35.1;;;;;;;9.5;100.0;102680;;;;
2022/03/25 01:22:00;;;;;;;43.3;35.1;;;;;;;9.5;100.0;102680;;;;
2022/03/25 01:23:00;;;;;;;43.3;35.1;;;;;;;9.5;100.0;102680;;;;
2022/03/25 01:24:00;;;;;;;43.3;35.1;;;;;;;9.5;100.0;102680;;;;
2022/03/25 01:25:01;;;;;;;43.3;35.1;;;;;;;9.5;100.0;102680;;;;
2022/03/25 01:26:00;;;;;;;43.3;35.1;;;;;;;9.5;100.0;102680;;;;
2022/03/25 01:27:00;;;;;;;43.3;35.1;;;;;;;9.5;100.0;102680;;;;
2022/03/25 01:28:00;;;;;;;43.3;35.1;;;;;;;9.5;100.0;102680;;;;
2022/03/25 01:29:00;;;;;;;43.3;35.1;;;;;;;9.5;100.0;102690;;;;
2022/03/25 01:30:00;;;;;;;43.3;35.1;;;;;;;9.5;100.0;102690;;;;
2022/03/25 01:31:01;;;;;;;43.3;35.1;;;;;;;9.4;100.0;102690;;;;
2022/03/25 01:32:01;;;;;;;43.3;35.1;;;;;;;9.4;100.0;102690;;;;
2022/03/25 01:33:00;;;;;;;43.3;35.1;;;;;;;9.5;100.0;102690;;;;
2022/03/25 01:34:01;;;;;;;43.3;35.1;;;;;;;9.5;100.0;102690;;;;
2022/03/25 01:35:00;;;;;;;43.3;35.1;;;;;;;9.4;100.0;102680;;;;
2022/03/25 01:36:00;;;;;;;43.3;35.1;;;;;;;9.4;100.0;102680;;;;
2022/03/25 01:37:00;;;;;;;43.6;33.0;;;;;;;9.4;100.0;102680;;;;
2022/03/25 01:38:01;;;;;;;43.6;33.0;;;;;;;9.4;100.0;102680;;;;
2022/03/25 01:39:01;;;;;;;43.6;33.0;;;;;;;9.4;100.0;102680;;;;
2022/03/25 01:40:00;;;;;;;43.6;33.0;;;;;;;9.4;100.0;102680;;;;
2022/03/25 01:41:00;;;;;;;43.6;33.0;;;;;;;9.3;100.0;102680;;;;
2022/03/25 01:42:00;;;;;;;43.6;33.0;;;;;;;9.3;100.0;102680;;;;
2022/03/25 01:43:00;;;;;;;43.6;33.0;;;;;;;9.3;100.0;102680;;;;
2022/03/25 01:44:01;;;;;;;43.6;33.0;;;;;;;9.3;100.0;102680;;;;
2022/03/25 01:45:00;;;;;;;43.6;33.0;;;;;;;9.2;100.0;102670;;;;
2022/03/25 01:46:00;;;;;;;43.6;33.0;;;;;;;9.2;100.0;102670;;;;
2022/03/25 01:47:00;;;;;;;43.6;33.0;;;;;;;9.1;100.0;102670;;;;
2022/03/25 01:48:01;;;;;;;43.6;33.0;;;;;;;9.1;100.0;102670;;;;
2022/03/25 01:49:00;;;;;;;43.6;33.0;;;;;;;9.0;100.0;102670;;;;
2022/03/25 01:50:01;;;;;;;43.6;33.0;;;;;;;9.0;100.0;102670;;;;
2022/03/25 01:51:00;;;;;;;43.6;33.0;;;;;;;9.0;100.0;102670;;;;
2022/03/25 01:52:02;;;;;;;43.6;33.0;;;;;;;9.0;100.0;102670;;;;
2022/03/25 01:53:00;;;;;;;43.6;33.0;;;;;;;8.9;100.0;102670;;;;
2022/03/25 01:54:01;;;;;;;43.6;33.0;;;;;;;8.9;100.0;102670;;;;
2022/03/25 01:55:10;;;;;;;43.6;33.0;;;;;;;8.8;100.0;102680;;;;
2022/03/25 01:56:01;;;;;;;43.6;33.0;;;;;;;8.8;100.0;102680;;;;
2022/03/25 01:57:03;;;;;;;40.4;31.5;;;;;;;8.8;100.0;102670;;;;
2022/03/25 01:58:00;;;;;;;40.4;31.5;;;;;;;8.8;100.0;102670;;;;
2022/03/25 01:59:00;;;;;;;40.4;31.5;;;;;;;8.9;100.0;102670;;;;
2022/03/25 02:00:00;;;;;;;40.4;31.5;;;;;;;8.9;100.0;102670;;;;
2022/03/25 02:01:02;;;;;;;40.4;31.5;;;;;;;8.8;100.0;102670;;;;
2022/03/25 02:02:01;;;;;;;40.4;31.5;;;;;;;8.8;100.0;102670;;;;
2022/03/25 02:03:00;;;;;;;40.4;31.5;;;;;;;8.7;100.0;102670;;;;
2022/03/25 02:04:00;;;;;;;40.4;31.5;;;;;;;8.7;100.0;102670;;;;
2022/03/25 02:05:00;;;;;;;40.4;31.5;;;;;;;8.7;100.0;102670;;;;
2022/03/25 02:06:00;;;;;;;40.4;31.5;;;;;;;8.7;100.0;102670;;;;
2022/03/25 02:07:00;;;;;;;40.4;31.5;;;;;;;8.8;100.0;102670;;;;
2022/03/25 02:08:00;;;;;;;40.4;31.5;;;;;;;8.8;100.0;102670;;;;
2022/03/25 02:09:00;;;;;;;40.4;31.5;;;;;;;8.7;100.0;102670;;;;
2022/03/25 02:10:00;;;;;;;40.4;31.5;;;;;;;8.7;100.0;102670;;;;
2022/03/25 02:11:00;;;;;;;40.4;31.5;;;;;;;8.8;100.0;102670;;;;
2022/03/25 02:12:00;;;;;;;40.4;31.5;;;;;;;8.8;100.0;102670;;;;
2022/03/25 02:13:00;;;;;;;40.4;31.5;;;;;;;8.6;100.0;102670;;;;
2022/03/25 02:14:00;;;;;;;40.4;31.5;;;;;;;8.6;100.0;102670;;;;
2022/03/25 02:15:00;;;;;;;40.4;31.5;;;;;;;8.7;100.0;102670;;;;
2022/03/25 02:16:00;;;;;;;40.4;31.5;;;;;;;8.7;100.0;102670;;;;
2022/03/25 02:17:00;;;;;;;39.8;30.8;;;;;;;8.8;100.0;102670;;;;
2022/03/25 02:18:01;;;;;;;39.8;30.8;;;;;;;8.8;100.0;102670;;;;
2022/03/25 02:19:00;;;;;;;39.8;30.8;;;;;;;8.7;100.0;102670;;;;
2022/03/25 02:20:00;;;;;;;39.8;30.8;;;;;;;8.7;100.0;102670;;;;
2022/03/25 02:21:00;;;;;;;39.8;30.8;;;;;;;8.8;100.0;102670;;;;
2022/03/25 02:22:00;;;;;;;39.8;30.8;;;;;;;8.8;100.0;102670;;;;
2022/03/25 02:23:00;;;;;;;39.8;30.8;;;;;;;8.7;100.0;102660;;;;
2022/03/25 02:24:01;;;;;;;39.8;30.8;;;;;;;8.7;100.0;102660;;;;
2022/03/25 02:25:00;;;;;;;39.8;30.8;;;;;;;8.7;100.0;102670;;;;
2022/03/25 02:26:00;;;;;;;39.8;30.8;;;;;;;8.7;100.0;102670;;;;
2022/03/25 02:27:00;;;;;;;39.8;30.8;;;;;;;8.7;100.0;102670;;;;
2022/03/25 02:28:01;;;;;;;39.8;30.8;;;;;;;8.7;100.0;102670;;;;
2022/03/25 02:29:00;;;;;;;39.8;30.8;;;;;;;8.6;100.0;102660;;;;
2022/03/25 02:30:00;;;;;;;39.8;30.8;;;;;;;8.6;100.0;102660;;;;
2022/03/25 02:31:00;;;;;;;39.8;30.8;;;;;;;8.5;100.0;102660;;;;
2022/03/25 02:32:00;;;;;;;39.8;30.8;;;;;;;8.5;100.0;102660;;;;
2022/03/25 02:33:01;;;;;;;39.8;30.8;;;;;;;8.5;100.0;102660;;;;
2022/03/25 02:34:01;;;;;;;39.8;30.8;;;;;;;8.5;100.0;102660;;;;
2022/03/25 02:35:00;;;;;;;39.8;30.8;;;;;;;8.4;100.0;102660;;;;
2022/03/25 02:36:00;;;;;;;39.8;30.8;;;;;;;8.4;100.0;102660;;;;
2022/03/25 02:37:01;;;;;;;38.4;30.9;;;;;;;8.5;100.0;102660;;;;
2022/03/25 02:38:00;;;;;;;38.4;30.9;;;;;;;8.5;100.0;102660;;;;
2022/03/25 02:39:05;;;;;;;38.4;30.9;;;;;;;8.4;100.0;102660;;;;
2022/03/25 02:40:00;;;;;;;38.4;30.9;;;;;;;8.4;100.0;102660;;;;
2022/03/25 02:41:00;;;;;;;38.4;30.9;;;;;;;8.4;100.0;102660;;;;
2022/03/25 02:42:00;;;;;;;38.4;30.9;;;;;;;8.4;100.0;102660;;;;
2022/03/25 02:43:00;;;;;;;38.4;30.9;;;;;;;8.3;100.0;102660;;;;
2022/03/25 02:44:00;;;;;;;38.4;30.9;;;;;;;8.3;100.0;102660;;;;
2022/03/25 02:45:00;;;;;;;38.4;30.9;;;;;;;8.3;100.0;102660;;;;
2022/03/25 02:46:00;;;;;;;38.4;30.9;;;;;;;8.3;100.0;102660;;;;
2022/03/25 02:47:00;;;;;;;38.4;30.9;;;;;;;8.3;100.0;102660;;;;
2022/03/25 02:48:02;;;;;;;38.4;30.9;;;;;;;8.3;100.0;102660;;;;
2022/03/25 02:49:00;;;;;;;38.4;30.9;;;;;;;8.3;100.0;102660;;;;
2022/03/25 02:50:00;;;;;;;38.4;30.9;;;;;;;8.3;100.0;102660;;;;
2022/03/25 02:51:00;;;;;;;38.4;30.9;;;;;;;8.2;100.0;102670;;;;
2022/03/25 02:52:00;;;;;;;38.4;30.9;;;;;;;8.2;100.0;102670;;;;
2022/03/25 02:53:00;;;;;;;38.4;30.9;;;;;;;8.1;100.0;102660;;;;
2022/03/25 02:54:00;;;;;;;38.4;30.9;;;;;;;8.1;100.0;102660;;;;
2022/03/25 02:55:00;;;;;;;38.4;30.9;;;;;;;8.1;100.0;102670;;;;
2022/03/25 02:56:00;;;;;;;38.4;30.9;;;;;;;8.1;100.0;102670;;;;
2022/03/25 02:57:00;;;;;;;38.9;31.6;;;;;;;8.2;100.0;102670;;;;
2022/03/25 02:58:00;;;;;;;38.9;31.6;;;;;;;8.2;100.0;102670;;;;
2022/03/25 02:59:00;;;;;;;38.9;31.6;;;;;;;8.2;100.0;102670;;;;
2022/03/25 03:00:00;;;;;;;38.9;31.6;;;;;;;8.2;100.0;102670;;;;
2022/03/25 03:01:00;;;;;;;38.9;31.6;;;;;;;8.2;100.0;102670;;;;
2022/03/25 03:02:00;;;;;;;38.9;31.6;;;;;;;8.2;100.0;102670;;;;
2022/03/25 03:03:00;;;;;;;38.9;31.6;;;;;;;8.1;100.0;102670;;;;
2022/03/25 03:04:00;;;;;;;38.9;31.6;;;;;;;8.1;100.0;102670;;;;
2022/03/25 03:05:00;;;;;;;38.9;31.6;;;;;;;8.1;100.0;102670;;;;
2022/03/25 03:06:00;;;;;;;38.9;31.6;;;;;;;8.1;100.0;102670;;;;
2022/03/25 03:07:00;;;;;;;38.9;31.6;;;;;;;8.1;100.0;102670;;;;
2022/03/25 03:08:00;;;;;;;38.9;31.6;;;;;;;8.1;100.0;102670;;;;
2022/03/25 03:09:00;;;;;;;38.9;31.6;;;;;;;8.0;100.0;102670;;;;
2022/03/25 03:10:00;;;;;;;38.9;31.6;;;;;;;8.0;100.0;102670;;;;
2022/03/25 03:11:00;;;;;;;38.9;31.6;;;;;;;8.0;100.0;102680;;;;
2022/03/25 03:12:00;;;;;;;38.9;31.6;;;;;;;8.0;100.0;102680;;;;
2022/03/25 03:13:00;;;;;;;38.9;31.6;;;;;;;7.9;100.0;102680;;;;
2022/03/25 03:14:00;;;;;;;38.9;31.6;;;;;;;7.9;100.0;102680;;;;
2022/03/25 03:15:00;;;;;;;38.9;31.6;;;;;;;7.9;100.0;102680;;;;
2022/03/25 03:16:00;;;;;;;38.9;31.6;;;;;;;7.9;100.0;102680;;;;
2022/03/25 03:17:00;;;;;;;39.9;32.2;;;;;;;7.9;100.0;102680;;;;
2022/03/25 03:18:00;;;;;;;39.9;32.2;;;;;;;7.9;100.0;102680;;;;
2022/03/25 03:19:00;;;;;;;39.9;32.2;;;;;;;7.9;100.0;102680;;;;
2022/03/25 03:20:00;;;;;;;39.9;32.2;;;;;;;7.9;100.0;102680;;;;
2022/03/25 03:21:00;;;;;;;39.9;32.2;;;;;;;7.9;100.0;102680;;;;
2022/03/25 03:22:00;;;;;;;39.9;32.2;;;;;;;7.9;100.0;102680;;;;
2022/03/25 03:23:00;;;;;;;39.9;32.2;;;;;;;7.9;100.0;102680;;;;
2022/03/25 03:24:00;;;;;;;39.9;32.2;;;;;;;7.9;100.0;102680;;;;
2022/03/25 03:25:00;;;;;;;39.9;32.2;;;;;;;7.7;100.0;102670;;;;
2022/03/25 03:26:00;;;;;;;39.9;32.2;;;;;;;7.7;100.0;102670;;;;
2022/03/25 03:27:00;;;;;;;39.9;32.2;;;;;;;7.8;100.0;102670;;;;
2022/03/25 03:28:00;;;;;;;39.9;32.2;;;;;;;7.8;100.0;102670;;;;
2022/03/25 03:29:00;;;;;;;39.9;32.2;;;;;;;7.7;100.0;102670;;;;
2022/03/25 03:30:00;;;;;;;39.9;32.2;;;;;;;7.7;100.0;102670;;;;
2022/03/25 03:31:00;;;;;;;39.9;32.2;;;;;;;7.8;100.0;102670;;;;
2022/03/25 03:32:00;;;;;;;39.9;32.2;;;;;;;7.8;100.0;102670;;;;
2022/03/25 03:33:04;;;;;;;39.9;32.2;;;;;;;7.7;100.0;102670;;;;
2022/03/25 03:34:00;;;;;;;39.9;32.2;;;;;;;7.7;100.0;102670;;;;
2022/03/25 03:35:00;;;;;;;39.9;32.2;;;;;;;7.7;100.0;102660;;;;
2022/03/25 03:36:00;;;;;;;40.9;32.8;;;;;;;7.7;100.0;102660;;;;
2022/03/25 03:37:00;;;;;;;40.9;32.8;;;;;;;7.7;100.0;102660;;;;
2022/03/25 03:38:01;;;;;;;40.9;32.8;;;;;;;7.7;100.0;102660;;;;
2022/03/25 03:39:00;;;;;;;40.9;32.8;;;;;;;7.7;100.0;102660;;;;
2022/03/25 03:40:00;;;;;;;40.9;32.8;;;;;;;7.7;100.0;102660;;;;
2022/03/25 03:41:00;;;;;;;40.9;32.8;;;;;;;7.6;100.0;102660;;;;
2022/03/25 03:42:02;;;;;;;40.9;32.8;;;;;;;7.6;100.0;102660;;;;
2022/03/25 03:43:00;;;;;;;40.9;32.8;;;;;;;7.5;100.0;102660;;;;
2022/03/25 03:44:00;;;;;;;40.9;32.8;;;;;;;7.5;100.0;102660;;;;
2022/03/25 03:45:00;;;;;;;40.9;32.8;;;;;;;7.5;100.0;102660;;;;
2022/03/25 03:46:00;;;;;;;40.9;32.8;;;;;;;7.5;100.0;102660;;;;
2022/03/25 03:47:00;;;;;;;40.9;32.8;;;;;;;7.4;100.0;102660;;;;
2022/03/25 03:48:00;;;;;;;40.9;32.8;;;;;;;7.4;100.0;102660;;;;
2022/03/25 03:49:00;;;;;;;40.9;32.8;;;;;;;7.4;100.0;102660;;;;
2022/03/25 03:50:00;;;;;;;40.9;32.8;;;;;;;7.4;100.0;102660;;;;
2022/03/25 03:51:00;;;;;;;40.9;32.8;;;;;;;7.4;100.0;102660;;;;
2022/03/25 03:52:00;;;;;;;40.9;32.8;;;;;;;7.4;100.0;102660;;;;
2022/03/25 03:53:00;;;;;;;40.9;32.8;;;;;;;7.5;100.0;102660;;;;
2022/03/25 03:54:00;;;;;;;40.9;32.8;;;;;;;7.5;100.0;102660;;;;
2022/03/25 03:55:00;;;;;;;40.9;32.8;;;;;;;7.4;100.0;102660;;;;
2022/03/25 03:56:00;;;;;;;43.8;35.2;;;;;;;7.4;100.0;102660;;;;
2022/03/25 03:57:00;;;;;;;43.8;35.2;;;;;;;7.5;100.0;102670;;;;
2022/03/25 03:58:00;;;;;;;43.8;35.2;;;;;;;7.5;100.0;102670;;;;
2022/03/25 03:59:00;;;;;;;43.8;35.2;;;;;;;7.3;100.0;102670;;;;
2022/03/25 04:00:00;;;;;;;43.8;35.2;;;;;;;7.3;100.0;102670;;;;
2022/03/25 04:01:05;;;;;;;43.8;35.2;;;;;;;7.3;100.0;102670;;;;
2022/03/25 04:02:00;;;;;;;43.8;35.2;;;;;;;7.3;100.0;102670;;;;
2022/03/25 04:03:00;;;;;;;43.8;35.2;;;;;;;7.3;100.0;102670;;;;
2022/03/25 04:04:00;;;;;;;43.8;35.2;;;;;;;7.3;100.0;102670;;;;
2022/03/25 04:05:00;;;;;;;43.8;35.2;;;;;;;7.2;100.0;102670;;;;
2022/03/25 04:06:00;;;;;;;43.8;35.2;;;;;;;7.2;100.0;102670;;;;
2022/03/25 04:07:00;;;;;;;43.8;35.2;;;;;;;7.2;100.0;102670;;;;
2022/03/25 04:08:00;;;;;;;43.8;35.2;;;;;;;7.2;100.0;102670;;;;
2022/03/25 04:09:00;;;;;;;43.8;35.2;;;;;;;7.2;100.0;102670;;;;
2022/03/25 04:10:00;;;;;;;43.8;35.2;;;;;;;7.2;100.0;102670;;;;
2022/03/25 04:11:00;;;;;;;43.8;35.2;;;;;;;7.0;100.0;102670;;;;
2022/03/25 04:12:00;;;;;;;43.8;35.2;;;;;;;7.0;100.0;102670;;;;
2022/03/25 04:13:00;;;;;;;43.8;35.2;;;;;;;7.1;100.0;102670;;;;
2022/03/25 04:14:00;;;;;;;43.8;35.2;;;;;;;7.1;100.0;102670;;;;
2022/03/25 04:15:01;;;;;;;43.8;35.2;;;;;;;6.9;100.0;102670;;;;
2022/03/25 04:16:00;;;;;;;43.4;35.3;;;;;;;6.9;100.0;102670;;;;
2022/03/25 04:17:00;;;;;;;43.4;35.3;;;;;;;7.1;100.0;102670;;;;
2022/03/25 04:18:00;;;;;;;43.4;35.3;;;;;;;7.1;100.0;102670;;;;
2022/03/25 04:19:00;;;;;;;43.4;35.3;;;;;;;7.1;100.0;102670;;;;
2022/03/25 04:20:00;;;;;;;43.4;35.3;;;;;;;7.1;100.0;102670;;;;
2022/03/25 04:21:00;;;;;;;43.4;35.3;;;;;;;6.9;100.0;102680;;;;
2022/03/25 04:22:00;;;;;;;43.4;35.3;;;;;;;6.9;100.0;102680;;;;
2022/03/25 04:23:00;;;;;;;43.4;35.3;;;;;;;7.0;100.0;102670;;;;
2022/03/25 04:24:00;;;;;;;43.4;35.3;;;;;;;7.0;100.0;102670;;;;
2022/03/25 04:25:00;;;;;;;43.4;35.3;;;;;;;6.9;100.0;102680;;;;
2022/03/25 04:26:00;;;;;;;43.4;35.3;;;;;;;6.9;100.0;102680;;;;
2022/03/25 04:27:00;;;;;;;43.4;35.3;;;;;;;6.8;100.0;102680;;;;
2022/03/25 04:28:05;;;;;;;43.4;35.3;;;;;;;6.8;100.0;102680;;;;
2022/03/25 04:29:00;;;;;;;43.4;35.3;;;;;;;6.8;100.0;102680;;;;
2022/03/25 04:30:00;;;;;;;43.4;35.3;;;;;;;6.8;100.0;102680;;;;
2022/03/25 04:31:00;;;;;;;43.4;35.3;;;;;;;6.8;100.0;102690;;;;
2022/03/25 04:32:00;;;;;;;43.4;35.3;;;;;;;6.8;100.0;102690;;;;
2022/03/25 04:33:01;;;;;;;43.4;35.3;;;;;;;6.8;100.0;102690;;;;
2022/03/25 04:34:00;;;;;;;43.4;35.3;;;;;;;6.8;100.0;102690;;;;
2022/03/25 04:35:00;;;;;;;43.4;35.3;;;;;;;6.7;100.0;102690;;;;
2022/03/25 04:36:00;;;;;;;46.4;36.4;;;;;;;6.7;100.0;102690;;;;
2022/03/25 04:37:00;;;;;;;46.4;36.4;;;;;;;6.8;100.0;102690;;;;
2022/03/25 04:38:00;;;;;;;46.4;36.4;;;;;;;6.8;100.0;102690;;;;
2022/03/25 04:39:00;;;;;;;46.4;36.4;;;;;;;6.8;100.0;102690;;;;
2022/03/25 04:40:00;;;;;;;46.4;36.4;;;;;;;6.8;100.0;102690;;;;
2022/03/25 04:41:00;;;;;;;46.4;36.4;;;;;;;6.8;100.0;102690;;;;
2022/03/25 04:42:00;;;;;;;46.4;36.4;;;;;;;6.8;100.0;102690;;;;
2022/03/25 04:43:01;;;;;;;46.4;36.4;;;;;;;6.7;100.0;102690;;;;
2022/03/25 04:44:00;;;;;;;46.4;36.4;;;;;;;6.7;100.0;102690;;;;
2022/03/25 04:45:00;;;;;;;46.4;36.4;;;;;;;6.7;100.0;102690;;;;
2022/03/25 04:46:00;;;;;;;46.4;36.4;;;;;;;6.7;100.0;102690;;;;
2022/03/25 04:47:00;;;;;;;46.4;36.4;;;;;;;6.7;100.0;102690;;;;
2022/03/25 04:48:00;;;;;;;46.4;36.4;;;;;;;6.7;100.0;102690;;;;
2022/03/25 04:49:00;;;;;;;46.4;36.4;;;;;;;6.6;100.0;102690;;;;
2022/03/25 04:50:00;;;;;;;46.4;36.4;;;;;;;6.6;100.0;102690;;;;
2022/03/25 04:51:00;;;;;;;46.4;36.4;;;;;;;6.7;100.0;102690;;;;
2022/03/25 04:52:00;;;;;;;46.4;36.4;;;;;;;6.7;100.0;102690;;;;
2022/03/25 04:53:00;;;;;;;46.4;36.4;;;;;;;6.5;100.0;102690;;;;
2022/03/25 04:54:00;;;;;;;46.4;36.4;;;;;;;6.5;100.0;102690;;;;
2022/03/25 04:55:00;;;;;;;46.4;36.4;;;;;;;6.6;100.0;102690;;;;
2022/03/25 04:56:00;;;;;;;47.2;36.4;;;;;;;6.6;100.0;102690;;;;
2022/03/25 04:57:00;;;;;;;47.2;36.4;;;;;;;6.7;100.0;102690;;;;
2022/03/25 04:58:04;;;;;;;47.2;36.4;;;;;;;6.7;100.0;102690;;;;
2022/03/25 04:59:00;;;;;;;47.2;36.4;;;;;;;6.6;100.0;102690;;;;
2022/03/25 05:00:00;;;;;;;47.2;36.4;;;;;;;6.6;100.0;102690;;;;
2022/03/25 05:01:00;;;;;;;47.2;36.4;;;;;;;6.7;100.0;102690;;;;
2022/03/25 05:02:01;;;;;;;47.2;36.4;;;;;;;6.7;100.0;102690;;;;
2022/03/25 05:03:00;;;;;;;47.2;36.4;;;;;;;6.6;100.0;102690;;;;
2022/03/25 05:04:00;;;;;;;47.2;36.4;;;;;;;6.6;100.0;102690;;;;
2022/03/25 05:05:00;;;;;;;47.2;36.4;;;;;;;6.7;100.0;102690;;;;
2022/03/25 05:06:00;;;;;;;47.2;36.4;;;;;;;6.7;100.0;102690;;;;
2022/03/25 05:07:00;;;;;;;47.2;36.4;;;;;;;6.6;100.0;102690;;;;
2022/03/25 05:08:00;;;;;;;47.2;36.4;;;;;;;6.6;100.0;102690;;;;
2022/03/25 05:09:00;;;;;;;47.2;36.4;;;;;;;6.6;100.0;102690;;;;
2022/03/25 05:10:00;;;;;;;47.2;36.4;;;;;;;6.6;100.0;102690;;;;
2022/03/25 05:11:02;;;;;;;47.2;36.4;;;;;;;6.6;100.0;102690;;;;
2022/03/25 05:12:00;;;;;;;47.2;36.4;;;;;;;6.6;100.0;102690;;;;
2022/03/25 05:13:00;;;;;;;47.2;36.4;;;;;;;6.5;100.0;102690;;;;
2022/03/25 05:14:00;;;;;;;47.2;36.4;;;;;;;6.5;100.0;102690;;;;
2022/03/25 05:15:00;;;;;;;47.2;36.4;;;;;;;6.5;100.0;102690;;;;
2022/03/25 05:16:00;;;;;;;48.8;37.9;;;;;;;6.5;100.0;102690;;;;
2022/03/25 05:17:00;;;;;;;48.8;37.9;;;;;;;6.6;100.0;102690;;;;
2022/03/25 05:18:00;;;;;;;48.8;37.9;;;;;;;6.6;100.0;102690;;;;
2022/03/25 05:19:00;;;;;;;48.8;37.9;;;;;;;6.5;100.0;102700;;;;
2022/03/25 05:20:03;;;;;;;48.8;37.9;;;;;;;6.5;100.0;102700;;;;
2022/03/25 05:21:01;;;;;;;48.8;37.9;;;;;;;6.5;100.0;102700;;;;
2022/03/25 05:22:00;;;;;;;48.8;37.9;;;;;;;6.5;100.0;102700;;;;
2022/03/25 05:23:00;;;;;;;48.8;37.9;;;;;;;6.5;100.0;102700;;;;
2022/03/25 05:24:00;;;;;;;48.8;37.9;;;;;;;6.5;100.0;102700;;;;
2022/03/25 05:25:00;;;;;;;48.8;37.9;;;;;;;6.5;100.0;102700;;;;
2022/03/25 05:26:01;;;;;;;48.8;37.9;;;;;;;6.5;100.0;102700;;;;
2022/03/25 05:27:00;;;;;;;48.8;37.9;;;;;;;6.4;100.0;102700;;;;
2022/03/25 05:28:00;;;;;;;48.8;37.9;;;;;;;6.4;100.0;102700;;;;
2022/03/25 05:29:00;;;;;;;48.8;37.9;;;;;;;6.4;100.0;102700;;;;
2022/03/25 05:30:00;;;;;;;48.8;37.9;;;;;;;6.4;100.0;102700;;;;
2022/03/25 05:31:00;;;;;;;48.8;37.9;;;;;;;6.4;100.0;102700;;;;
2022/03/25 05:32:00;;;;;;;48.8;37.9;;;;;;;6.4;100.0;102700;;;;
2022/03/25 05:33:00;;;;;;;48.8;37.9;;;;;;;6.3;100.0;102700;;;;
2022/03/25 05:34:00;;;;;;;48.8;37.9;;;;;;;6.3;100.0;102700;;;;
2022/03/25 05:35:00;;;;;;;48.8;37.9;;;;;;;6.3;100.0;102700;;;;
2022/03/25 05:36:00;;;;;;;50.4;39.1;;;;;;;6.3;100.0;102700;;;;
2022/03/25 05:37:00;;;;;;;50.4;39.1;;;;;;;6.3;100.0;102700;;;;
2022/03/25 05:38:00;;;;;;;50.4;39.1;;;;;;;6.3;100.0;102700;;;;
2022/03/25 05:39:00;;;;;;;50.4;39.1;;;;;;;6.3;100.0;102700;;;;
2022/03/25 05:40:00;;;;;;;50.4;39.1;;;;;;;6.3;100.0;102700;;;;
2022/03/25 05:41:00;;;;;;;50.4;39.1;;;;;;;6.3;100.0;102700;;;;
2022/03/25 05:42:00;;;;;;;50.4;39.1;;;;;;;6.3;100.0;102700;;;;
2022/03/25 05:43:00;;;;;;;50.4;39.1;;;;;;;6.3;100.0;102710;;;;
2022/03/25 05:44:00;;;;;;;50.4;39.1;;;;;;;6.3;100.0;102710;;;;
2022/03/25 05:45:00;;;;;;;50.4;39.1;;;;;;;6.3;100.0;102710;;;;
2022/03/25 05:46:00;;;;;;;50.4;39.1;;;;;;;6.3;100.0;102710;;;;
2022/03/25 05:47:00;;;;;;;50.4;39.1;;;;;;;6.3;100.0;102710;;;;
2022/03/25 05:48:00;;;;;;;50.4;39.1;;;;;;;6.3;100.0;102710;;;;
2022/03/25 05:49:00;;;;;;;50.4;39.1;;;;;;;6.3;100.0;102720;;;;
2022/03/25 05:50:00;;;;;;;50.4;39.1;;;;;;;6.3;100.0;102720;;;;
2022/03/25 05:51:00;;;;;;;50.4;39.1;;;;;;;6.3;100.0;102720;;;;
2022/03/25 05:52:00;;;;;;;50.4;39.1;;;;;;;6.3;100.0;102720;;;;
2022/03/25 05:53:00;;;;;;;50.4;39.1;;;;;;;6.3;100.0;102720;;;;
2022/03/25 05:54:00;;;;;;;50.4;39.1;;;;;;;6.3;100.0;102720;;;;
2022/03/25 05:55:00;;;;;;;50.4;39.1;;;;;;;6.3;100.0;102720;;;;
2022/03/25 05:56:00;;;;;;;51.7;41.6;;;;;;;6.3;100.0;102720;;;;
2022/03/25 05:57:00;;;;;;;51.7;41.6;;;;;;;6.3;100.0;102720;;;;
2022/03/25 05:58:01;;;;;;;51.7;41.6;;;;;;;6.3;100.0;102720;;;;
2022/03/25 05:59:00;;;;;;;51.7;41.6;;;;;;;6.2;100.0;102720;;;;
2022/03/25 06:00:02;;;;;;;51.7;41.6;;;;;;;6.2;100.0;102720;;;;
2022/03/25 06:01:01;;;;;;;51.7;41.6;;;;;;;6.2;100.0;102720;;;;
2022/03/25 06:02:00;;;;;;;51.7;41.6;;;;;;;6.2;100.0;102720;;;;
2022/03/25 06:03:00;;;;;;;51.7;41.6;;;;;;;6.2;100.0;102720;;;;
2022/03/25 06:04:00;;;;;;;51.7;41.6;;;;;;;6.2;100.0;102720;;;;
2022/03/25 06:05:00;;;;;;;51.7;41.6;;;;;;;6.2;100.0;102720;;;;
2022/03/25 06:06:02;;;;;;;51.7;41.6;;;;;;;6.2;100.0;102720;;;;
2022/03/25 06:07:00;;;;;;;51.7;41.6;;;;;;;6.3;100.0;102720;;;;
2022/03/25 06:08:00;;;;;;;51.7;41.6;;;;;;;6.3;100.0;102720;;;;
2022/03/25 06:09:00;;;;;;;51.7;41.6;;;;;;;6.2;100.0;102720;;;;
2022/03/25 06:10:00;;;;;;;51.7;41.6;;;;;;;6.2;100.0;102720;;;;
2022/03/25 06:11:00;;;;;;;51.7;41.6;;;;;;;6.1;100.0;102720;;;;
2022/03/25 06:12:00;;;;;;;51.7;41.6;;;;;;;6.1;100.0;102720;;;;
2022/03/25 06:13:00;;;;;;;51.7;41.6;;;;;;;6.2;100.0;102720;;;;
2022/03/25 06:14:00;;;;;;;51.7;41.6;;;;;;;6.2;100.0;102720;;;;
2022/03/25 06:15:00;;;;;;;51.7;41.6;;;;;;;6.2;100.0;102730;;;;